Latest Weather Observations for Wudinna Airport

IDS60801

Issued at 6:31 pm CST Friday 28 August 2015 (issued every 30 minutes, with the page automatically refreshed every 10 minutes)

About weather observations | Map of weather stations | Latest weather observations for SA | Other Formats
Station Details ID: 018083 Name: WUDINNA AERO Lat: -33.04 Lon: 135.45 Height: 86.4 m
Data from the previous 72 hours. | See also: Recent months at Wudinna Airport
Date/Time
CST
Temp
°C
App
Temp
°C
Dew
Point
Rel
Hum
%
Delta-T
°C
Wind Press
QNH
hPa
Press
MSL
hPa
Rain
since 9 am
mm
Dir
 
Spd
km/h
Gust
km/h
Spd
kts
Gust
kts
28/06:30pm 12.9 9.8 7.4 69 2.7 SE 13 20 7 11 1026.6 - 0.2
28/06:00pm 13.4 9.9 7.0 65 3.1 SE 15 20 8 11 1026.2 1026.3 0.2
28/05:30pm 14.3 10.0 6.9 61 3.6 SE 19 26 10 14 1026.0 - 0.2
28/05:00pm 14.6 11.5 5.7 55 4.2 S 11 13 6 7 1025.8 - 0.2
28/04:30pm 14.0 11.5 6.6 61 3.6 SSE 9 13 5 7 1025.9 - 0.2
28/04:00pm 14.6 10.5 4.3 50 4.8 SE 15 20 8 11 1025.9 - 0.2
28/03:30pm 15.9 12.5 4.0 45 5.5 E 11 15 6 8 1026.1 - 0.2
28/03:00pm 15.4 12.1 4.5 48 5.1 SE 11 20 6 11 1026.3 1026.4 0.2
28/02:30pm 15.4 13.1 5.0 50 4.9 NNE 6 11 3 6 1026.5 - 0.0
28/02:00pm 14.3 11.1 4.9 53 4.4 E 11 17 6 9 1026.9 - 0.0
28/01:30pm 14.0 11.1 4.6 53 4.4 E 9 13 5 7 1027.3 - 0.0
28/01:00pm 14.3 12.0 4.9 53 4.4 E 6 11 3 6 1027.8 - 0.0
28/12:30pm 14.3 11.6 7.4 63 3.4 SE 11 17 6 9 1028.4 - 0.0
28/12:00pm 13.2 9.5 6.1 62 3.4 E 15 20 8 11 1029.0 1029.1 0.0
28/11:30am 13.3 9.4 6.9 65 3.1 ESE 17 22 9 12 1029.4 - 0.0
28/11:00am 13.0 9.3 7.9 71 2.5 ESE 17 24 9 13 1029.7 - 0.0
28/10:30am 11.9 9.4 8.2 78 1.8 ESE 11 19 6 10 1030.0 - 0.0
28/10:00am 10.2 8.0 7.8 85 1.2 ESE 9 15 5 8 1030.2 - 0.0
28/09:30am 8.9 6.9 7.0 88 0.9 SSE 7 13 4 7 1030.4 - 0.0
28/09:00am 7.7 5.1 6.3 91 0.6 SSE 9 13 5 7 1030.4 1030.5 0.0
28/08:30am 6.9 6.0 6.2 95 0.3 CALM 0 0 0 0 1030.2 - 0.0
28/08:00am 5.0 3.8 4.4 96 0.3 CALM 0 0 0 0 1030.1 - 0.0
28/07:30am 3.7 2.2 3.1 96 0.2 CALM 0 0 0 0 1029.9 - 0.0
28/07:00am 4.0 1.4 3.4 96 0.2 NNE 6 7 3 4 1029.6 - 0.0
28/06:30am 3.8 2.3 3.2 96 0.2 CALM 0 0 0 0 1029.5 - 0.0
28/06:00am 4.4 3.0 3.8 96 0.2 CALM 0 0 0 0 1029.3 1029.4 0.0
28/05:30am 4.1 2.7 3.5 96 0.2 CALM 0 0 0 0 1029.2 - 0.0
28/05:00am 2.9 0.9 2.3 96 0.2 NNE 2 7 1 4 1029.1 - 0.0
28/04:30am 2.7 1.0 2.1 96 0.2 CALM 0 0 0 0 1028.9 - 0.0
28/04:00am 2.4 -0.6 1.8 96 0.2 NNE 7 9 4 5 1028.8 - 0.0
28/03:30am 1.6 -0.2 1.0 96 0.2 CALM 0 2 0 1 1028.9 - 0.0
28/03:00am 1.7 -1.3 1.1 96 0.2 N 6 7 3 4 1029.0 1029.1 0.0
28/02:30am 1.7 -1.3 1.0 95 0.3 N 6 7 3 4 1029.1 - 0.0
28/02:00am 1.9 -1.2 1.2 95 0.3 NNE 7 11 4 6 1029.4 - 0.0
28/01:30am 2.4 0.6 1.5 94 0.3 CALM 0 0 0 0 1029.4 - 0.0
28/01:00am 2.6 -0.3 1.6 93 0.4 NNE 6 9 3 5 1029.3 - 0.0
28/12:30am 3.7 0.8 2.7 93 0.4 NNE 7 9 4 5 1029.5 - 0.0
28/12:00am 4.3 2.4 3.0 91 0.5 NW 2 6 1 3 1029.4 1029.5 0.0
 
Date/Time
CST
Temp
°C
App
Temp
°C
Dew
Point
Rel
Hum
%
Delta-T
°C
Wind Press
QNH
hPa
Press
MSL
hPa
Rain
since 9 am
mm
Dir
 
Spd
km/h
Gust
km/h
Spd
kts
Gust
kts
27/11:30pm 5.9 4.6 4.2 89 0.7 CALM 0 0 0 0 1029.5 - 0.0
27/11:00pm 8.2 6.0 6.0 86 1.0 ESE 7 11 4 6 1029.4 - 0.0
27/10:30pm 8.9 6.4 6.7 86 1.0 ESE 9 11 5 6 1029.4 - 0.0
27/10:00pm 9.3 6.4 6.7 84 1.2 ESE 11 15 6 8 1029.5 - 0.0
27/09:30pm 9.8 7.1 7.4 85 1.1 SE 11 13 6 7 1029.4 - 0.0
27/09:00pm 9.1 6.4 7.4 89 0.8 SSE 11 17 6 9 1029.1 1029.2 0.0
27/08:30pm 7.9 5.7 6.0 88 0.9 S 7 11 4 6 1028.7 - 0.0
27/08:00pm 8.4 6.2 6.2 86 1.0 SW 7 9 4 5 1028.6 - 0.0
27/07:30pm 8.5 6.6 6.5 87 0.9 SSW 6 7 3 4 1028.4 - 0.0
27/07:00pm 9.0 8.1 6.1 82 1.3 CALM 0 2 0 1 1028.0 - 0.0
27/06:30pm 10.1 7.9 6.3 77 1.8 S 7 9 4 5 1027.8 - 0.0
27/06:00pm 11.9 10.1 7.2 73 2.3 SW 6 7 3 4 1027.5 1027.6 0.0
27/05:30pm 13.2 10.9 7.4 68 2.8 SW 9 11 5 6 1027.3 - 0.0
27/05:00pm 12.7 9.8 6.7 67 2.9 SSW 11 13 6 7 1027.1 - 0.0
27/04:30pm 13.5 10.2 6.4 62 3.4 S 13 19 7 10 1027.1 - 0.0
27/04:00pm 14.3 11.0 4.3 51 4.6 S 11 17 6 9 1027.0 - 0.0
27/03:30pm 14.0 10.6 6.1 59 3.8 S 13 15 7 8 1027.0 - 0.0
27/03:00pm 14.3 10.0 5.1 54 4.3 S 17 22 9 12 1027.0 1027.1 0.0
27/02:30pm 14.3 11.1 5.1 54 4.3 SSE 11 19 6 10 1027.0 - 0.0
27/02:00pm 14.3 10.4 5.4 55 4.2 SSW 15 19 8 10 1027.0 - 0.0
27/01:30pm 13.8 10.5 6.2 60 3.6 S 13 19 7 10 1027.3 - 0.0
27/01:00pm 13.1 8.9 5.8 61 3.5 S 17 20 9 11 1027.6 - 0.0
27/12:30pm 13.1 9.0 6.0 62 3.4 SSE 17 22 9 12 1027.9 - 0.0
27/12:00pm 13.9 10.2 6.3 60 3.6 SSE 15 20 8 11 1028.2 1028.3 0.0
27/11:30am 13.4 9.7 6.3 62 3.4 S 15 24 8 13 1028.5 - 0.0
27/11:00am 12.9 9.8 7.1 68 2.8 S 13 22 7 12 1028.6 - 0.0
27/10:30am 12.0 8.8 6.9 71 2.4 S 13 17 7 9 1028.7 - 0.0
27/10:00am 11.3 9.1 7.8 79 1.7 SW 9 15 5 8 1028.7 - 0.0
27/09:30am 9.9 8.0 7.7 86 1.1 SW 7 11 4 6 1028.8 - 0.0
27/09:00am 8.5 6.6 6.6 88 0.9 WSW 6 7 3 4 1028.5 1028.6 0.0
27/08:30am 7.5 6.7 6.6 94 0.4 CALM 0 0 0 0 1028.3 - 0.0
27/08:00am 5.5 3.0 4.9 96 0.3 N 7 9 4 5 1028.1 - 0.0
27/07:30am 4.1 1.9 3.5 96 0.2 NNE 4 7 2 4 1027.8 - 0.0
27/07:00am 2.4 -0.6 1.8 96 0.2 NW 7 7 4 4 1027.5 - 0.0
27/06:30am 1.8 0.0 1.2 96 0.2 CALM 0 0 0 0 1027.1 - 0.0
27/06:00am 1.6 -1.4 1.0 96 0.2 NNW 6 6 3 3 1026.4 1026.5 0.0
27/05:30am 2.0 -0.9 1.4 96 0.2 N 6 7 3 4 1026.3 - 0.0
27/05:00am 1.8 -1.1 1.2 96 0.2 NNE 6 7 3 4 1026.0 - 0.0
27/04:30am 1.0 -2.1 0.4 96 0.2 N 6 9 3 5 1025.7 - 0.0
27/04:00am 0.3 -2.9 -0.3 96 0.2 N 6 7 3 4 1025.8 - 0.0
27/03:30am 0.6 -2.5 0.0 96 0.2 N 6 7 3 4 1025.8 - 0.0
27/03:00am 1.1 -2.1 0.5 96 0.2 NNE 7 7 4 4 1025.8 1025.9 0.0
27/02:30am 1.1 -1.9 0.5 96 0.2 N 6 7 3 4 1026.0 - 0.0
27/02:00am 1.2 -1.8 0.5 95 0.3 N 6 7 3 4 1026.1 - 0.0
27/01:30am 1.5 -1.5 0.9 96 0.2 N 6 7 3 4 1026.1 - 0.0
27/01:00am 1.5 -1.5 0.8 95 0.3 NNW 6 9 3 5 1026.3 - 0.0
27/12:30am 1.7 -1.3 1.0 95 0.3 NW 6 7 3 4 1026.1 - 0.0
27/12:00am 2.1 0.0 1.4 95 0.3 NNW 2 7 1 4 1026.2 1026.3 0.0
 
Date/Time
CST
Temp
°C
App
Temp
°C
Dew
Point
Rel
Hum
%
Delta-T
°C
Wind Press
QNH
hPa
Press
MSL
hPa
Rain
since 9 am
mm
Dir
 
Spd
km/h
Gust
km/h
Spd
kts
Gust
kts
26/11:30pm 2.4 0.7 1.7 95 0.3 CALM 0 0 0 0 1026.4 - 0.0
26/11:00pm 2.5 -0.6 1.6 94 0.3 N 7 7 4 4 1026.6 - 0.0
26/10:30pm 3.5 1.9 2.6 94 0.4 CALM 0 0 0 0 1026.7 - 0.0
26/10:00pm 3.6 2.0 2.4 92 0.5 CALM 0 0 0 0 1026.6 - 0.0
26/09:30pm 4.7 3.3 3.4 91 0.5 CALM 0 2 0 1 1026.5 - 0.0
26/09:00pm 6.0 3.1 4.5 90 0.6 W 9 11 5 6 1026.5 1026.6 0.0
26/08:30pm 7.4 5.3 5.9 90 0.7 SSW 6 7 3 4 1026.4 - 0.0
26/08:00pm 7.5 6.5 5.6 88 0.9 CALM 0 0 0 0 1026.1 - 0.0
26/07:30pm 7.6 5.3 5.9 89 0.8 W 7 9 4 5 1025.8 - 0.0
26/07:00pm 8.5 5.5 6.1 85 1.1 W 11 13 6 7 1025.5 - 0.0
26/06:30pm 9.2 6.6 6.3 82 1.3 WSW 9 11 5 6 1025.2 - 0.0
26/06:00pm 10.1 7.2 6.4 78 1.7 SW 11 13 6 7 1025.1 1025.2 0.0
26/05:30pm 10.5 7.5 5.9 73 2.1 WSW 11 13 6 7 1024.8 - 0.0
26/05:00pm 11.2 7.6 6.7 74 2.1 SW 15 19 8 10 1024.5 - 0.0
26/04:30pm 11.9 7.8 6.2 68 2.7 WSW 17 24 9 13 1024.2 - 0.0
26/04:00pm 12.3 9.0 4.8 60 3.4 SSW 11 20 6 11 1024.1 - 0.0
26/03:30pm 12.7 10.3 5.1 60 3.5 SSE 7 17 4 9 1024.1 - 0.0
26/03:00pm 12.8 9.3 5.5 61 3.4 SSE 13 22 7 12 1024.3 1024.3 0.0
26/02:30pm 12.9 10.4 3.8 54 4.1 SSW 6 11 3 6 1024.4 - 0.0
26/02:00pm 12.8 10.5 5.5 61 3.4 E 7 13 4 7 1024.7 - 0.0
26/01:30pm 12.1 7.3 4.6 60 3.4 SSE 19 26 10 14 1024.9 - 0.0
26/01:00pm 13.0 9.3 4.7 57 3.8 SSE 13 17 7 9 1025.1 - 0.0
26/12:30pm 13.5 10.4 5.7 59 3.7 SW 11 15 6 8 1025.5 - 0.0
26/12:00pm 12.5 9.7 5.2 61 3.4 SSE 9 15 5 8 1025.9 1026.0 0.0
26/11:30am 12.3 9.2 5.7 64 3.1 S 11 17 6 9 1026.2 - 0.0
26/11:00am 11.5 8.5 6.0 69 2.6 SSE 11 17 6 9 1026.5 - 0.0
26/10:30am 10.6 8.1 6.6 76 1.9 ESE 9 15 5 8 1026.8 - 0.0
26/10:00am 9.7 7.2 6.4 80 1.5 ESE 9 13 5 7 1026.8 - 0.0
26/09:30am 8.9 6.9 7.0 88 0.9 SE 7 11 4 6 1026.8 - 0.0
26/09:00am 6.7 4.7 6.1 96 0.3 ENE 6 7 3 4 1026.6 1026.7 0.0
26/08:30am 5.0 3.8 4.4 96 0.3 CALM 0 0 0 0 1026.6 - 0.0
26/08:00am 3.8 2.0 3.4 97 0.2 NNE 2 6 1 3 1026.3 - 0.0
26/07:30am 1.6 -1.3 1.2 97 0.2 NE 6 7 3 4 1026.1 - 0.0
26/07:00am 0.4 -1.6 -0.2 96 0.2 CALM 0 0 0 0 1025.7 - 0.0
26/06:30am 0.7 -1.3 0.1 96 0.2 CALM 0 0 0 0 1025.5 - 0.0
26/06:00am 0.7 -2.4 0.1 96 0.2 N 6 7 3 4 1025.5 1025.6 0.0
26/05:30am 1.6 -1.6 0.9 95 0.3 NE 7 9 4 5 1025.4 - 0.0
26/05:00am 3.0 0.6 2.3 95 0.3 NE 4 13 2 7 1025.6 - 0.0
26/04:30am 4.6 2.5 4.0 96 0.3 ENE 4 9 2 5 1025.8 - 0.0
26/04:00am 3.9 2.5 3.3 96 0.2 CALM 0 0 0 0 1025.9 - 0.0
26/03:30am 3.3 1.7 2.7 96 0.2 CALM 0 0 0 0 1026.1 - 0.0
26/03:00am 2.3 0.6 1.7 96 0.2 CALM 0 0 0 0 1026.3 1026.4 0.0
26/02:30am 1.5 -0.4 0.8 95 0.3 CALM 0 0 0 0 1026.6 - 0.0
26/02:00am 1.3 -1.7 0.6 95 0.3 NNW 6 7 3 4 1026.9 - 0.0
26/01:30am 1.6 -1.6 0.9 95 0.3 NNW 7 9 4 5 1027.1 - 0.0
26/01:00am 2.4 -0.5 1.5 94 0.3 NNW 6 7 3 4 1027.4 - 0.0
26/12:30am 2.6 -0.4 1.7 94 0.3 NE 7 9 4 5 1027.5 - 0.0
26/12:00am 3.5 0.8 2.6 94 0.4 NNE 6 7 3 4 1027.5 1027.6 0.0
 
Date/Time
CST
Temp
°C
App
Temp
°C
Dew
Point
Rel
Hum
%
Delta-T
°C
Wind Press
QNH
hPa
Press
MSL
hPa
Rain
since 9 am
mm
Dir
 
Spd
km/h
Gust
km/h
Spd
kts
Gust
kts
25/11:30pm 4.0 1.2 3.1 94 0.4 NNE 7 11 4 6 1027.7 - 0.0
25/11:00pm 4.4 3.0 3.5 94 0.4 CALM 0 0 0 0 1027.8 - 0.0
25/10:30pm 3.8 0.9 2.8 93 0.4 NE 7 9 4 5 1027.9 - 0.0
25/10:00pm 3.8 1.5 2.6 92 0.5 ENE 4 9 2 5 1028.1 - 0.0
25/09:30pm 4.8 2.3 3.6 92 0.5 NW 6 7 3 4 1028.1 - 0.0
25/09:00pm 5.1 3.7 3.4 89 0.7 CALM 0 7 0 4 1028.0 1028.1 0.0
25/08:30pm 5.5 2.8 3.5 87 0.8 E 7 9 4 5 1027.7 - 0.0
25/08:00pm 7.5 4.5 4.3 80 1.4 E 9 13 5 7 1027.4 - 0.0
25/07:30pm 8.3 5.5 5.1 80 1.4 SE 9 13 5 7 1027.3 - 0.0
25/07:00pm 9.2 6.4 5.2 76 1.8 SE 9 13 5 7 1027.0 - 0.0

Other Formats:

Comma delimited format used in spreadsheet applications
http://www.bom.gov.au/fwo/IDS60801/IDS60801.95654.axf

JavaScript Object Notation format (JSON) in row-major order
http://www.bom.gov.au/fwo/IDS60801/IDS60801.95654.json